Time;durP1;ratioP1;P1;durP2;ratioP2;P2;SDS_P1;SDS_P2;PMS_P1;PMS_P2;Temp;Humidity;BMP_temperature;BMP_pressure;BME280_temperature;BME280_humidity;BME280_pressure;Samples;Min_cycle;Max_cycle;Signal;HPM_P1;HPM_P2
2023/10/21 00:01:05;;;;;;;;;;;;;;;20.47;51.73;96419.05;609054;232;62433;-66
2023/10/21 00:03:32;;;;;;;;;;;;;;;20.46;51.82;96407.58;609027;232;68685;-66
2023/10/21 00:06:00;;;;;;;;;;;;;;;20.46;51.74;96406.77;609055;232;68957;-66
2023/10/21 00:08:28;;;;;;;;;;;;;;;20.47;51.73;96419.05;609042;233;64609;-66
2023/10/21 00:11:06;;;;;;;;;;;;;;;20.46;51.70;96410.25;608763;232;68833;-66
2023/10/21 00:13:35;;;;;;;;;;;;;;;20.47;51.75;96409.16;609013;232;68589;-66
2023/10/21 00:16:03;;;;;;;;;;;;;;;20.47;51.63;96405.70;608774;233;65528;-66
2023/10/21 00:18:30;;;;;;;;;;;;;;;20.46;51.69;96412.10;609079;232;68756;-66
2023/10/21 00:20:58;;;;;;;;;;;;;;;20.47;51.78;96408.38;609136;232;68472;-66
2023/10/21 00:23:26;;;;;;;;;;;;;;;20.46;51.71;96412.10;608943;233;62608;-66
2023/10/21 00:25:53;;;;;;;;;;;;;;;20.46;51.66;96407.58;609107;232;66146;-66
2023/10/21 00:28:21;;;;;;;;;;;;;;;20.46;51.77;96415.59;608815;233;68647;-66
2023/10/21 00:30:49;;;;;;;;;;;;;;;20.46;51.74;96412.92;608690;233;64671;-66
2023/10/21 00:33:17;;;;;;;;;;;;;;;20.46;51.75;96407.58;608776;233;69191;-66
2023/10/21 00:35:48;;;;;;;;;;;;;;;20.46;51.74;96401.42;609031;233;69650;-66
2023/10/21 00:38:15;;;;;;;;;;;;;;;20.46;51.73;96407.58;609073;232;64815;-66
2023/10/21 00:40:50;;;;;;;;;;;;;;;20.47;51.79;96405.70;608923;232;68596;-66
2023/10/21 00:43:34;;;;;;;;;;;;;;;20.46;51.74;96404.91;609046;232;66808;-66
2023/10/21 00:46:03;;;;;;;;;;;;;;;20.46;51.69;96418.26;608819;233;64785;-66
2023/10/21 00:48:32;;;;;;;;;;;;;;;20.46;51.70;96407.58;608564;233;69232;-66
2023/10/21 00:51:00;;;;;;;;;;;;;;;20.46;51.69;96407.58;604113;232;66748;-66
2023/10/21 00:53:29;;;;;;;;;;;;;;;20.46;51.76;96412.10;602793;232;63459;-66
2023/10/21 00:55:56;;;;;;;;;;;;;;;20.45;51.76;96403.30;602763;235;68807;-66
2023/10/21 00:58:25;;;;;;;;;;;;;;;20.45;51.74;96403.30;602817;235;68661;-66
2023/10/21 01:00:53;;;;;;;;;;;;;;;20.46;51.68;96412.92;602789;235;64747;-66
2023/10/21 01:03:22;;;;;;;;;;;;;;;20.45;51.71;96408.64;602764;235;68786;-66
2023/10/21 01:05:49;;;;;;;;;;;;;;;20.45;51.70;96400.63;602791;235;68753;-66
2023/10/21 01:08:17;;;;;;;;;;;;;;;20.46;51.62;96412.10;602777;235;64564;-66
2023/10/21 01:10:45;;;;;;;;;;;;;;;20.45;51.63;96397.17;602861;235;68799;-66
2023/10/21 01:13:13;;;;;;;;;;;;;;;20.46;51.57;96398.75;602847;235;65859;-66
2023/10/21 01:15:41;;;;;;;;;;;;;;;20.45;51.69;96413.19;602811;232;62488;-66
2023/10/21 01:18:09;;;;;;;;;;;;;;;20.45;51.68;96394.50;602771;235;68396;-66
2023/10/21 01:20:41;;;;;;;;;;;;;;;20.45;51.50;96399.84;602800;235;66683;-66
2023/10/21 01:23:09;;;;;;;;;;;;;;;20.45;51.57;96389.95;602874;235;64676;-66
2023/10/21 01:25:36;;;;;;;;;;;;;;;20.46;51.62;96396.09;602820;235;68437;-66
2023/10/21 01:28:04;;;;;;;;;;;;;;;20.44;51.55;96388.37;602814;235;66422;-66
2023/10/21 01:30:31;;;;;;;;;;;;;;;20.44;51.48;96388.37;602797;235;64690;-66
2023/10/21 01:32:59;;;;;;;;;;;;;;;20.45;51.42;96394.50;602800;235;66012;-66
2023/10/21 01:35:27;;;;;;;;;;;;;;;20.44;51.45;96407.06;602827;235;66380;-66
2023/10/21 01:37:54;;;;;;;;;;;;;;;20.45;51.45;96386.50;602855;235;64912;-66
2023/10/21 01:40:22;;;;;;;;;;;;;;;20.45;51.44;96408.64;602798;235;66256;-66
2023/10/21 01:42:49;;;;;;;;;;;;;;;20.44;51.49;96385.70;602792;235;66348;-66
2023/10/21 01:45:17;;;;;;;;;;;;;;;20.45;51.52;96405.97;602735;232;64966;-66
2023/10/21 01:47:44;;;;;;;;;;;;;;;20.45;51.46;96397.17;602771;235;68904;-66
2023/10/21 01:50:12;;;;;;;;;;;;;;;20.44;51.43;96399.05;605908;232;68643;-66
2023/10/21 01:52:40;;;;;;;;;;;;;;;20.44;51.48;96404.39;609227;232;64556;-66
2023/10/21 01:55:08;;;;;;;;;;;;;;;20.44;51.45;96388.37;608474;232;67224;-66
2023/10/21 01:57:36;;;;;;;;;;;;;;;20.45;51.43;96389.95;609079;232;66689;-66
2023/10/21 02:00:05;;;;;;;;;;;;;;;20.45;51.40;96399.84;608966;233;64736;-66
2023/10/21 02:02:34;;;;;;;;;;;;;;;20.44;51.48;96399.05;608668;231;48808;-66
2023/10/21 02:05:02;;;;;;;;;;;;;;;20.44;51.43;96396.38;608840;232;68799;-66
2023/10/21 02:07:30;;;;;;;;;;;;;;;20.44;51.42;96408.94;608913;232;64557;-65
2023/10/21 02:09:59;;;;;;;;;;;;;;;20.44;51.34;96383.04;608652;232;68862;-65
2023/10/21 02:12:26;;;;;;;;;;;;;;;20.45;51.37;96399.84;608935;232;68500;-65
2023/10/21 02:14:54;;;;;;;;;;;;;;;20.44;51.37;96403.60;608979;232;62277;-65
2023/10/21 02:17:21;;;;;;;;;;;;;;;20.44;51.77;96403.60;608900;232;68839;-65
2023/10/21 02:19:50;;;;;;;;;;;;;;;20.43;51.46;96412.66;608838;232;68681;-65
2023/10/21 02:22:18;;;;;;;;;;;;;;;20.44;51.59;96401.72;608874;232;64698;-65
2023/10/21 02:24:45;;;;;;;;;;;;;;;20.43;51.70;96418.00;608991;233;66310;-65
2023/10/21 02:27:13;;;;;;;;;;;;;;;20.43;51.44;96418.80;609023;232;68406;-65
2023/10/21 02:29:40;;;;;;;;;;;;;;;20.42;51.43;96422.55;608510;233;64587;-65
2023/10/21 02:32:08;;;;;;;;;;;;;;;20.42;51.23;96424.43;609011;232;68484;-65
2023/10/21 02:34:35;;;;;;;;;;;;;;;20.42;51.73;96411.87;608980;233;69518;-65
2023/10/21 02:37:03;;;;;;;;;;;;;;;20.43;50.96;96424.13;608979;232;62758;-65
2023/10/21 02:39:31;;;;;;;;;;;;;;;20.42;52.13;96425.22;609279;232;68606;-65
2023/10/21 02:41:58;;;;;;;;;;;;;;;20.42;50.94;96419.88;608914;232;68334;-65
2023/10/21 02:44:27;;;;;;;;;;;;;;;20.42;51.81;96425.22;609032;233;65554;-65
2023/10/21 02:46:54;;;;;;;;;;;;;;;20.43;51.09;96439.36;608874;232;68708;-66
2023/10/21 02:49:22;;;;;;;;;;;;;;;20.42;52.21;96422.55;608971;231;68298;-66
2023/10/21 02:51:49;;;;;;;;;;;;;;;20.42;51.55;96438.56;608667;232;64816;-66
2023/10/21 02:54:17;;;;;;;;;;;;;;;20.41;52.04;96444.98;608330;232;65573;-66
2023/10/21 02:56:45;;;;;;;;;;;;;;;20.40;50.80;96443.38;609018;233;68471;-66
2023/10/21 02:59:12;;;;;;;;;;;;;;;20.41;51.22;96442.32;608976;232;64594;-66
2023/10/21 03:01:40;;;;;;;;;;;;;;;20.41;51.05;96447.66;608984;231;66306;-66
2023/10/21 03:04:08;;;;;;;;;;;;;;;20.42;51.53;96451.12;609110;232;67144;-66
2023/10/21 03:06:36;;;;;;;;;;;;;;;20.40;51.62;96444.17;609093;232;64898;-66
2023/10/21 03:09:06;;;;;;;;;;;;;;;20.41;52.58;96447.66;608541;232;66163;-66
2023/10/21 03:11:33;;;;;;;;;;;;;;;20.40;51.23;96441.50;609000;233;73276;-66
2023/10/21 03:14:00;;;;;;;;;;;;;;;20.40;51.05;96456.72;609071;232;64726;-66
2023/10/21 03:16:28;;;;;;;;;;;;;;;20.40;52.04;96444.17;609099;232;66084;-66
2023/10/21 03:18:56;;;;;;;;;;;;;;;20.40;50.88;96446.05;608957;232;68516;-66
2023/10/21 03:21:23;;;;;;;;;;;;;;;20.40;51.90;96459.39;608955;233;64877;-66
2023/10/21 03:23:51;;;;;;;;;;;;;;;20.40;51.05;96454.05;606802;229;68629;-66
2023/10/21 03:26:18;;;;;;;;;;;;;;;20.40;51.06;96459.39;607433;232;68231;-66
2023/10/21 03:28:46;;;;;;;;;;;;;;;20.40;51.33;96468.19;608993;232;62726;-66
2023/10/21 03:31:13;;;;;;;;;;;;;;;20.40;51.46;96467.40;608107;232;68755;-66
2023/10/21 03:33:41;;;;;;;;;;;;;;;20.40;51.16;96467.40;609123;232;68369;-65
2023/10/21 03:36:08;;;;;;;;;;;;;;;20.40;52.26;96468.19;609062;232;64737;-66
2023/10/21 03:38:37;;;;;;;;;;;;;;;20.40;51.23;96468.19;608916;232;68503;-66
2023/10/21 03:41:06;;;;;;;;;;;;;;;20.40;51.19;96459.39;608733;232;68491;-66
2023/10/21 03:43:34;;;;;;;;;;;;;;;20.40;50.92;96465.52;609068;233;64662;-66
2023/10/21 03:46:05;;;;;;;;;;;;;;;20.39;51.04;96471.95;609032;232;68578;-66
2023/10/21 03:48:34;;;;;;;;;;;;;;;20.41;50.91;96469.02;608964;232;68721;-67
2023/10/21 03:51:07;;;;;;;;;;;;;;;20.40;51.70;96473.53;608418;232;63515;-66
2023/10/21 03:53:34;;;;;;;;;;;;;;;20.40;51.05;96470.06;608858;233;68381;-66
2023/10/21 03:56:02;;;;;;;;;;;;;;;20.42;51.02;96475.14;609001;232;68421;-66
2023/10/21 03:58:31;;;;;;;;;;;;;;;20.40;50.97;96462.06;608740;233;62537;-66
2023/10/21 04:00:58;;;;;;;;;;;;;;;20.40;51.58;96470.06;609032;231;68553;-66
2023/10/21 04:03:27;;;;;;;;;;;;;;;20.40;51.13;96476.20;608382;233;68484;-67
2023/10/21 04:05:55;;;;;;;;;;;;;;;20.41;51.69;96474.34;609263;232;64790;-66
2023/10/21 04:08:23;;;;;;;;;;;;;;;20.40;51.61;96468.19;608748;232;68256;-66
2023/10/21 04:10:52;;;;;;;;;;;;;;;20.40;51.64;96467.40;608993;231;66375;-66
2023/10/21 04:13:20;;;;;;;;;;;;;;;20.39;51.72;96466.61;609074;232;64719;-66
2023/10/21 04:15:49;;;;;;;;;;;;;;;20.38;51.55;96474.91;608842;232;68633;-66
2023/10/21 04:18:17;;;;;;;;;;;;;;;20.39;51.64;96479.95;608764;232;68478;-66
2023/10/21 04:20:45;;;;;;;;;;;;;;;20.39;52.08;96471.16;608413;233;63308;-66
2023/10/21 04:23:12;;;;;;;;;;;;;;;20.39;52.90;96468.48;609133;232;65996;-67
2023/10/21 04:25:40;;;;;;;;;;;;;;;20.39;53.03;96477.28;608913;232;66251;-66
2023/10/21 04:28:07;;;;;;;;;;;;;;;20.38;53.11;96478.37;609011;233;62609;-66
2023/10/21 04:30:35;;;;;;;;;;;;;;;20.39;52.82;96484.50;609099;232;66376;-66
2023/10/21 04:33:04;;;;;;;;;;;;;;;20.38;51.47;96486.38;608796;232;68300;-66
2023/10/21 04:35:32;;;;;;;;;;;;;;;20.39;51.55;96487.16;608990;232;62643;-67
2023/10/21 04:38:00;;;;;;;;;;;;;;;20.39;52.21;96484.50;608862;233;68690;-66
2023/10/21 04:40:28;;;;;;;;;;;;;;;20.39;52.47;96501.30;608975;232;68425;-66
2023/10/21 04:42:55;;;;;;;;;;;;;;;20.38;52.68;96501.59;608975;232;62355;-66
2023/10/21 04:45:23;;;;;;;;;;;;;;;20.38;51.68;96502.39;608836;233;66161;-66
2023/10/21 04:47:51;;;;;;;;;;;;;;;20.38;53.46;96504.27;609002;232;68424;-66
2023/10/21 04:50:18;;;;;;;;;;;;;;;20.37;51.76;96506.11;609004;232;64931;-66
2023/10/21 04:52:46;;;;;;;;;;;;;;;20.38;52.60;96507.73;609003;233;68622;-67
2023/10/21 04:55:14;;;;;;;;;;;;;;;20.38;52.23;96514.94;609074;233;65798;-66
2023/10/21 04:57:41;;;;;;;;;;;;;;;20.37;53.42;96511.45;609055;233;64870;-66
2023/10/21 05:00:09;;;;;;;;;;;;;;;20.37;52.35;96511.45;609061;233;66183;-66
2023/10/21 05:02:37;;;;;;;;;;;;;;;20.37;51.73;96513.33;609077;233;68761;-67
2023/10/21 05:05:04;;;;;;;;;;;;;;;20.38;52.61;96522.95;609040;233;64554;-66
2023/10/21 05:07:32;;;;;;;;;;;;;;;20.33;53.56;96518.44;609055;233;68613;-66
2023/10/21 05:09:59;;;;;;;;;;;;;;;20.37;52.33;96521.34;609051;233;68355;-66
2023/10/21 05:12:27;;;;;;;;;;;;;;;20.37;51.95;96537.34;609034;233;64579;-66
2023/10/21 05:14:54;;;;;;;;;;;;;;;20.37;53.39;96540.81;609095;233;68566;-66
2023/10/21 05:17:22;;;;;;;;;;;;;;;20.37;52.42;96548.02;609075;233;68031;-66
2023/10/21 05:19:50;;;;;;;;;;;;;;;20.37;53.33;96548.02;609041;233;64827;-66
2023/10/21 05:22:17;;;;;;;;;;;;;;;20.36;53.59;96557.91;609066;233;68038;-66
2023/10/21 05:24:45;;;;;;;;;;;;;;;20.36;51.89;96562.45;609037;233;68110;-66
2023/10/21 05:27:12;;;;;;;;;;;;;;;20.36;51.58;96573.13;609087;233;62279;-66
2023/10/21 05:29:40;;;;;;;;;;;;;;;20.37;54.01;96561.37;609067;233;66422;-66
2023/10/21 05:32:07;;;;;;;;;;;;;;;20.36;51.13;96567.79;609014;233;65626;-66
2023/10/21 05:34:35;;;;;;;;;;;;;;;20.36;50.97;96573.13;609044;233;64720;-66
2023/10/21 05:37:03;;;;;;;;;;;;;;;20.37;54.07;96585.39;609078;232;66963;-66
2023/10/21 05:39:30;;;;;;;;;;;;;;;20.36;53.38;96579.26;609125;233;66225;-66
2023/10/21 05:41:58;;;;;;;;;;;;;;;20.36;54.51;96589.14;609026;233;64883;-66
2023/10/21 05:44:25;;;;;;;;;;;;;;;20.36;54.34;96575.80;609073;233;68483;-66
2023/10/21 05:46:53;;;;;;;;;;;;;;;20.36;54.00;96586.47;609025;233;68286;-66
2023/10/21 05:49:22;;;;;;;;;;;;;;;20.35;54.61;96584.86;608993;232;64519;-66
2023/10/21 05:51:49;;;;;;;;;;;;;;;20.35;54.83;96592.86;609016;233;68473;-66
2023/10/21 05:54:17;;;;;;;;;;;;;;;20.35;53.28;96593.69;609083;233;68219;-66
2023/10/21 05:56:44;;;;;;;;;;;;;;;20.34;53.12;96597.41;609050;233;64586;-66
2023/10/21 05:59:12;;;;;;;;;;;;;;;20.34;53.90;96589.41;609040;233;69249;-66
2023/10/21 06:01:39;;;;;;;;;;;;;;;20.34;54.26;96592.07;609044;233;66215;-66
2023/10/21 06:04:07;;;;;;;;;;;;;;;20.34;53.73;96591.28;609024;233;63389;-66
2023/10/21 06:06:35;;;;;;;;;;;;;;;20.35;53.09;96600.88;609102;233;66183;-66
2023/10/21 06:09:04;;;;;;;;;;;;;;;20.34;52.70;96608.08;609077;233;68131;-66
2023/10/21 06:11:31;;;;;;;;;;;;;;;20.35;54.09;96595.53;609002;233;64731;-66
2023/10/21 06:13:59;;;;;;;;;;;;;;;20.34;52.31;96608.08;609003;233;69129;-66
2023/10/21 06:16:27;;;;;;;;;;;;;;;20.35;51.95;96606.20;609015;233;68926;-66
2023/10/21 06:18:54;;;;;;;;;;;;;;;20.35;51.56;96608.87;609077;233;64649;-66
2023/10/21 06:21:22;;;;;;;;;;;;;;;20.36;54.47;96607.82;609049;233;66173;-66
2023/10/21 06:23:50;;;;;;;;;;;;;;;20.34;52.97;96608.08;609029;233;66181;-66
2023/10/21 06:26:18;;;;;;;;;;;;;;;20.33;52.48;96603.83;609012;233;64585;-66
2023/10/21 06:28:45;;;;;;;;;;;;;;;20.35;51.11;96619.55;608991;233;68306;-66
2023/10/21 06:31:12;;;;;;;;;;;;;;;20.36;51.00;96605.16;609049;233;68521;-66
2023/10/21 06:33:40;;;;;;;;;;;;;;;20.38;52.21;96619.02;609029;233;62461;-66
2023/10/21 06:36:07;;;;;;;;;;;;;;;20.38;51.47;96603.80;609004;233;66174;-66
2023/10/21 06:38:35;;;;;;;;;;;;;;;20.39;51.66;96615.27;609017;233;68539;-66
2023/10/21 06:41:03;;;;;;;;;;;;;;;20.39;51.88;96604.59;608944;233;62364;-66
2023/10/21 06:43:30;;;;;;;;;;;;;;;20.40;51.18;96611.52;609067;233;66721;-66
2023/10/21 06:45:59;;;;;;;;;;;;;;;20.40;51.45;96617.64;609014;233;67440;-66
2023/10/21 06:48:28;;;;;;;;;;;;;;;20.42;51.99;96612.05;608989;233;64696;-66
2023/10/21 06:50:56;;;;;;;;;;;;;;;20.42;51.21;96609.37;604091;232;68930;-66
2023/10/21 06:53:23;;;;;;;;;;;;;;;20.43;51.17;96608.30;602745;235;68706;-66
2023/10/21 06:55:51;;;;;;;;;;;;;;;20.44;51.50;96601.90;602755;235;64554;-66
2023/10/21 06:58:19;;;;;;;;;;;;;;;20.45;51.50;96608.03;602827;235;68664;-66
2023/10/21 07:00:47;;;;;;;;;;;;;;;20.45;51.60;96608.03;602773;235;68608;-66
2023/10/21 07:03:15;;;;;;;;;;;;;;;20.47;51.73;96616.56;602745;235;64748;-66
2023/10/21 07:05:42;;;;;;;;;;;;;;;20.46;51.87;96609.61;602745;235;69634;-66
2023/10/21 07:08:10;;;;;;;;;;;;;;;20.46;51.96;96610.44;602751;235;68329;-66
2023/10/21 07:10:39;;;;;;;;;;;;;;;20.47;52.03;96611.23;602800;235;62471;-66
2023/10/21 07:13:08;;;;;;;;;;;;;;;20.47;52.28;96617.36;602751;235;66317;-66
2023/10/21 07:15:35;;;;;;;;;;;;;;;20.47;52.59;96612.02;602755;235;68584;-66
2023/10/21 07:18:03;;;;;;;;;;;;;;;20.47;52.49;96622.70;602747;235;64585;-66
2023/10/21 07:20:31;;;;;;;;;;;;;;;20.48;52.32;96613.60;602758;235;68785;-67
2023/10/21 07:22:58;;;;;;;;;;;;;;;20.48;52.40;96613.60;602834;235;66135;-66
2023/10/21 07:25:26;;;;;;;;;;;;;;;20.49;52.31;96623.22;602764;235;64973;-66
2023/10/21 07:27:53;;;;;;;;;;;;;;;20.49;52.52;96628.56;602778;235;66526;-66
2023/10/21 07:30:24;;;;;;;;;;;;;;;20.49;52.65;96623.22;602742;235;69217;-66
2023/10/21 07:32:51;;;;;;;;;;;;;;;20.50;52.96;96624.02;602767;235;62458;-66
2023/10/21 07:35:19;;;;;;;;;;;;;;;20.50;52.83;96632.81;602784;235;69004;-66
2023/10/21 07:37:47;;;;;;;;;;;;;;;20.51;52.79;96628.27;602762;235;66465;-66
2023/10/21 07:40:14;;;;;;;;;;;;;;;20.51;52.75;96639.73;602813;232;64721;-66
2023/10/21 07:42:42;;;;;;;;;;;;;;;20.52;52.72;96637.89;602855;235;68686;-66
2023/10/21 07:45:11;;;;;;;;;;;;;;;20.51;52.81;96623.72;602813;235;68554;-66
2023/10/21 07:47:39;;;;;;;;;;;;;;;20.51;52.91;96623.72;602840;233;63469;-66
2023/10/21 07:50:07;;;;;;;;;;;;;;;20.52;53.12;96638.69;606183;232;66147;-66
2023/10/21 07:52:36;;;;;;;;;;;;;;;20.53;53.06;96628.80;608975;232;68842;-66
2023/10/21 07:55:04;;;;;;;;;;;;;;;20.52;53.15;96633.34;608892;232;62419;-66
2023/10/21 07:57:32;;;;;;;;;;;;;;;20.53;53.15;96648.31;609087;232;66857;-66
2023/10/21 08:00:00;;;;;;;;;;;;;;;20.53;53.13;96642.97;608901;232;66445;-66
2023/10/21 08:02:27;;;;;;;;;;;;;;;20.53;53.31;96642.97;608933;232;64740;-66
2023/10/21 08:04:56;;;;;;;;;;;;;;;20.54;53.30;96654.44;609180;232;68728;-66
2023/10/21 08:07:23;;;;;;;;;;;;;;;20.54;53.94;96649.09;609092;232;66451;-66
2023/10/21 08:09:52;;;;;;;;;;;;;;;20.54;53.97;96652.59;609116;232;62304;-66
2023/10/21 08:12:19;;;;;;;;;;;;;;;20.54;54.06;96663.27;609089;232;66416;-66
2023/10/21 08:14:47;;;;;;;;;;;;;;;20.54;53.74;96654.44;609083;232;68727;-66
2023/10/21 08:17:14;;;;;;;;;;;;;;;20.54;54.07;96657.93;609017;232;64583;-66
2023/10/21 08:19:42;;;;;;;;;;;;;;;20.55;54.34;96659.52;608992;233;68658;-66
2023/10/21 08:22:10;;;;;;;;;;;;;;;20.55;54.56;96672.86;609078;232;68730;-66
2023/10/21 08:24:38;;;;;;;;;;;;;;;20.56;54.50;96662.97;609036;232;64770;-67
2023/10/21 08:27:06;;;;;;;;;;;;;;;20.55;54.59;96658.72;609114;232;68621;-67
2023/10/21 08:29:33;;;;;;;;;;;;;;;20.56;54.65;96662.97;608804;232;68801;-66
2023/10/21 08:32:01;;;;;;;;;;;;;;;20.56;54.61;96661.09;608985;232;62399;-66
2023/10/21 08:34:29;;;;;;;;;;;;;;;20.55;54.86;96672.86;608362;233;68484;-66
2023/10/21 08:36:56;;;;;;;;;;;;;;;20.56;55.04;96666.44;608892;233;66191;-67
2023/10/21 08:39:24;;;;;;;;;;;;;;;20.56;54.86;96661.09;609065;233;62648;-66
2023/10/21 08:41:51;;;;;;;;;;;;;;;20.57;54.75;96668.05;609164;232;66572;-66
2023/10/21 08:44:24;;;;;;;;;;;;;;;20.56;54.85;96663.77;607965;232;69132;-66
2023/10/21 08:46:50;;;;;;;;;;;;;;;20.57;55.00;96669.90;608952;232;64752;-66
2023/10/21 08:49:19;;;;;;;;;;;;;;;20.57;55.00;96670.72;609309;229;68897;-67
2023/10/21 08:51:48;;;;;;;;;;;;;;;20.58;54.89;96676.85;611142;232;68554;-67
2023/10/21 08:54:17;;;;;;;;;;;;;;;20.57;54.80;96681.40;611098;232;64851;-67
2023/10/21 08:56:44;;;;;;;;;;;;;;;20.57;54.68;96681.40;611137;232;66319;-67
2023/10/21 08:59:14;;;;;;;;;;;;;;;20.57;54.50;96681.40;611149;232;68572;-67
2023/10/21 09:01:42;;;;;;;;;;;;;;;20.58;54.45;96671.52;611117;232;62469;-67
2023/10/21 09:04:10;;;;;;;;;;;;;;;20.57;54.40;96673.39;611127;232;66142;-67
2023/10/21 09:06:39;;;;;;;;;;;;;;;20.58;54.32;96674.98;611146;230;68866;-67
2023/10/21 09:09:07;;;;;;;;;;;;;;;20.58;54.21;96672.30;611100;231;65684;-67
2023/10/21 09:11:35;;;;;;;;;;;;;;;20.57;54.07;96670.72;611123;231;66715;-67
2023/10/21 09:14:03;;;;;;;;;;;;;;;20.58;54.03;96674.98;611122;232;68838;-67
2023/10/21 09:16:36;;;;;;;;;;;;;;;20.58;54.02;96677.64;611162;232;64787;-67
2023/10/21 09:19:11;;;;;;;;;;;;;;;20.58;54.10;96672.30;611118;232;68717;-67
2023/10/21 09:21:41;;;;;;;;;;;;;;;20.59;54.11;96673.09;611117;232;68557;-67
2023/10/21 09:24:12;;;;;;;;;;;;;;;20.59;54.05;96676.56;611151;232;65537;-67
2023/10/21 09:26:40;;;;;;;;;;;;;;;20.58;54.00;96674.98;611178;232;68470;-67
2023/10/21 09:29:10;;;;;;;;;;;;;;;20.58;53.93;96674.98;611156;232;66637;-67
2023/10/21 09:31:42;;;;;;;;;;;;;;;20.59;53.89;96678.44;611172;232;64811;-67
2023/10/21 09:34:10;;;;;;;;;;;;;;;20.60;53.98;96677.38;611020;232;68458;-67
2023/10/21 09:36:41;;;;;;;;;;;;;;;20.60;54.02;96674.71;611150;232;66109;-67
2023/10/21 09:39:09;;;;;;;;;;;;;;;20.59;54.10;96679.23;611121;232;62479;-67
2023/10/21 09:41:37;;;;;;;;;;;;;;;20.60;54.10;96675.50;611121;232;68616;-68
2023/10/21 09:44:06;;;;;;;;;;;;;;;20.60;54.08;96690.73;611122;232;68571;-67
2023/10/21 09:46:35;;;;;;;;;;;;;;;20.60;54.11;96680.84;611143;232;64461;-67
2023/10/21 09:49:04;;;;;;;;;;;;;;;20.60;54.20;96696.86;610228;232;68428;-67
2023/10/21 09:51:33;;;;;;;;;;;;;;;20.60;54.29;96686.19;602844;235;66295;-67
2023/10/21 09:54:01;;;;;;;;;;;;;;;20.61;54.26;96682.42;602804;235;62038;-67
2023/10/21 09:56:29;;;;;;;;;;;;;;;20.62;54.13;96683.22;602841;235;68540;-67
2023/10/21 09:58:58;;;;;;;;;;;;;;;20.61;54.07;96682.42;602788;235;68944;-67
2023/10/21 10:01:26;;;;;;;;;;;;;;;20.60;54.03;96680.84;602815;235;64787;-67
2023/10/21 10:03:55;;;;;;;;;;;;;;;20.62;53.96;96683.22;602816;235;66621;-67
2023/10/21 10:06:25;;;;;;;;;;;;;;;20.60;53.96;96675.50;602720;235;68753;-67
2023/10/21 10:08:54;;;;;;;;;;;;;;;20.61;54.17;96674.42;602580;233;63514;-67
2023/10/21 10:11:25;;;;;;;;;;;;;;;20.63;54.35;96670.70;602791;232;68824;-67
2023/10/21 10:13:54;;;;;;;;;;;;;;;20.63;54.72;96671.48;602499;235;48749;-67
2023/10/21 10:16:24;;;;;;;;;;;;;;;20.64;54.97;96669.61;597076;235;66549;-67
2023/10/21 10:18:55;;;;;;;;;;;;;;;20.64;55.10;96659.72;602823;235;66132;-67
2023/10/21 10:21:21;;;;;;;;;;;;;;;20.64;55.18;96653.59;602804;233;66578;-66
2023/10/21 10:23:50;;;;;;;;;;;;;;;20.64;55.14;96653.59;602769;235;62385;-67
2023/10/21 10:26:34;;;;;;;;;;;;;;;20.64;55.21;96656.26;599165;231;68980;-67
2023/10/21 10:29:03;;;;;;;;;;;;;;;20.64;54.97;96653.59;596204;238;66481;-66
2023/10/21 10:31:30;;;;;;;;;;;;;;;20.64;54.80;96654.38;596110;238;64549;-68
2023/10/21 10:34:00;;;;;;;;;;;;;;;20.64;54.87;96649.04;596227;238;68733;-67
2023/10/21 10:36:34;;;;;;;;;;;;;;;20.64;54.93;96649.04;596170;238;68633;-67
2023/10/21 10:38:58;;;;;;;;;;;;;;;20.64;55.00;96648.25;595935;238;64752;-67
2023/10/21 10:41:25;;;;;;;;;;;;;;;20.64;55.11;96649.04;596235;238;68545;-67
2023/10/21 10:44:01;;;;;;;;;;;;;;;20.65;55.04;96639.16;596220;238;68513;-67
2023/10/21 10:46:24;;;;;;;;;;;;;;;20.64;54.97;96646.38;595877;238;62723;-67
2023/10/21 10:48:52;;;;;;;;;;;;;;;20.65;55.01;96636.48;596143;238;66445;-67
2023/10/21 10:51:23;;;;;;;;;;;;;;;20.65;55.05;96639.95;593302;237;68774;-67
2023/10/21 10:53:59;;;;;;;;;;;;;;;20.65;55.10;96633.81;593538;238;64633;-67
2023/10/21 10:56:25;;;;;;;;;;;;;;;20.66;54.96;96635.42;592928;238;69469;-67
2023/10/21 10:58:52;;;;;;;;;;;;;;;20.66;54.79;96632.76;593503;237;68663;-67
2023/10/21 11:01:27;;;;;;;;;;;;;;;20.66;54.74;96632.76;593992;237;65008;-67
2023/10/21 11:04:01;;;;;;;;;;;;;;;20.67;54.89;96631.67;593804;237;68713;-68
2023/10/21 11:06:32;;;;;;;;;;;;;;;20.66;54.95;96630.09;593692;237;67113;-67
2023/10/21 11:09:00;;;;;;;;;;;;;;;20.66;54.91;96628.21;593665;237;64969;-67
2023/10/21 11:11:28;;;;;;;;;;;;;;;20.67;54.95;96629.00;593440;238;68812;-67
2023/10/21 11:13:55;;;;;;;;;;;;;;;20.67;55.01;96620.99;593799;237;68850;-67
2023/10/21 11:16:23;;;;;;;;;;;;;;;20.67;54.99;96623.66;593511;237;63384;-67
2023/10/21 11:18:52;;;;;;;;;;;;;;;20.66;55.02;96614.06;593729;238;68676;-67
2023/10/21 11:21:21;;;;;;;;;;;;;;;20.67;55.07;96629.80;593619;237;68695;-67
2023/10/21 11:23:50;;;;;;;;;;;;;;;20.69;54.97;96629.53;593579;237;64822;-67
2023/10/21 11:26:18;;;;;;;;;;;;;;;20.68;54.87;96635.92;593654;238;68667;-67
2023/10/21 11:28:45;;;;;;;;;;;;;;;20.69;54.84;96629.53;593790;237;68595;-67
2023/10/21 11:31:13;;;;;;;;;;;;;;;20.68;54.82;96622.58;593667;237;64652;-67
2023/10/21 11:33:40;;;;;;;;;;;;;;;20.68;54.87;96620.73;593737;236;69653;-67
2023/10/21 11:36:08;;;;;;;;;;;;;;;20.69;54.92;96624.19;593978;237;66448;-67
2023/10/21 11:38:36;;;;;;;;;;;;;;;20.69;54.96;96618.84;593667;238;64572;-67
2023/10/21 11:41:07;;;;;;;;;;;;;;;20.69;55.09;96624.98;593735;238;68927;-67
2023/10/21 11:43:35;;;;;;;;;;;;;;;20.70;55.21;96623.10;593639;237;68731;-66
2023/10/21 11:46:03;;;;;;;;;;;;;;;20.70;55.21;96620.44;593723;238;62453;-66
2023/10/21 11:48:31;;;;;;;;;;;;;;;20.70;55.09;96631.11;593635;236;69339;-66
2023/10/21 11:50:58;;;;;;;;;;;;;;;20.70;55.07;96631.11;599007;236;68611;-66
2023/10/21 11:53:26;;;;;;;;;;;;;;;20.70;54.98;96620.44;599619;236;64634;-66
2023/10/21 12:07:19;;;;;;;;;;;;;;;20.71;55.20;96627.39;599626;236;66440;-66
2023/10/21 12:28:12;;;;;;;;;;;;;;;20.70;54.89;96621.22;599626;236;68798;-67
2023/10/21 12:32:44;;;;;;;;;;;;;;;20.72;55.01;96623.63;599640;236;64849;-67
2023/10/21 12:35:37;;;;;;;;;;;;;;;20.72;55.05;96627.09;599574;235;68617;-67
2023/10/21 12:40:32;;;;;;;;;;;;;;;20.73;54.95;96619.88;599596;236;62475;-67
2023/10/21 12:45:50;;;;;;;;;;;;;;;20.71;54.99;96617.50;599278;236;68546;-67
2023/10/21 12:48:18;;;;;;;;;;;;;;;20.72;54.97;96618.29;599053;235;62363;-67
2023/10/21 12:50:49;;;;;;;;;;;;;;;20.71;54.95;96617.50;599042;237;66309;-67
2023/10/21 12:53:15;;;;;;;;;;;;;;;20.72;54.88;96611.07;599058;236;66200;-67
2023/10/21 12:55:44;;;;;;;;;;;;;;;20.73;54.93;96619.88;599060;237;64729;-67
2023/10/21 12:58:11;;;;;;;;;;;;;;;20.73;54.94;96617.20;599096;237;69188;-67
2023/10/21 13:00:43;;;;;;;;;;;;;;;20.73;54.96;96614.53;599084;237;68679;-67
2023/10/21 13:03:10;;;;;;;;;;;;;;;20.73;54.87;96619.88;599066;236;64676;-66
2023/10/21 13:05:38;;;;;;;;;;;;;;;20.74;54.87;96616.14;599075;235;68634;-67
2023/10/21 13:08:10;;;;;;;;;;;;;;;20.74;54.94;96630.29;599079;237;66520;-67
2023/10/21 13:10:35;;;;;;;;;;;;;;;20.74;54.94;96621.48;599080;235;64953;-67
2023/10/21 13:13:03;;;;;;;;;;;;;;;20.74;55.02;96616.94;599088;237;66412;-67
2023/10/21 13:15:31;;;;;;;;;;;;;;;20.74;55.09;96610.80;599056;237;68567;-67
2023/10/21 13:18:03;;;;;;;;;;;;;;;20.74;55.07;96616.14;599090;237;62697;-67
2023/10/21 13:20:28;;;;;;;;;;;;;;;20.75;55.03;96623.07;599017;236;66316;-66
2023/10/21 13:22:55;;;;;;;;;;;;;;;20.74;55.03;96621.48;599118;237;66709;-66
2023/10/21 13:25:23;;;;;;;;;;;;;;;20.75;54.96;96615.06;599056;237;62475;-66
2023/10/21 13:27:50;;;;;;;;;;;;;;;20.75;54.89;96620.40;599059;235;66512;-66
2023/10/21 13:30:18;;;;;;;;;;;;;;;20.75;54.95;96618.52;599074;237;68671;-66